Time;durP1;ratioP1;P1;durP2;ratioP2;P2;SDS_P1;SDS_P2;PMS_P1;PMS_P2;Temp;Humidity;BMP_temperature;BMP_pressure;BME280_temperature;BME280_humidity;BME280_pressure;Samples;Min_cycle;Max_cycle;Signal;HPM_P1;HPM_P2
2024/01/21 00:01:53;;;;;;;45.53;23.10;;;;;-5.40;99493.00;;;;5073608;28;20071;-68
2024/01/21 00:04:20;;;;;;;36.83;20.25;;;;;-5.20;99484.00;;;;5074164;28;20040;-69
2024/01/21 00:06:47;;;;;;;45.25;22.67;;;;;-5.10;99492.00;;;;5074241;28;20489;-69
2024/01/21 00:09:13;;;;;;;49.92;24.17;;;;;-5.30;99485.00;;;;5076001;28;20501;-70
2024/01/21 00:11:40;;;;;;;45.03;23.50;;;;;-5.40;99472.00;;;;5077104;28;20123;-70
2024/01/21 00:14:07;;;;;;;45.05;22.17;;;;;-5.50;99488.00;;;;5058676;28;20075;-70
2024/01/21 00:16:33;;;;;;;47.33;24.42;;;;;-5.50;99495.00;;;;5074499;28;20121;-70
2024/01/21 00:19:00;;;;;;;45.60;23.85;;;;;-5.50;99492.00;;;;5075169;28;20055;-70
2024/01/21 00:21:26;;;;;;;45.10;23.42;;;;;-5.50;99485.00;;;;5074357;28;20060;-70
2024/01/21 00:23:55;;;;;;;44.53;21.75;;;;;-5.60;99483.00;;;;5072847;28;20143;-70
2024/01/21 00:26:22;;;;;;;41.67;22.38;;;;;-5.60;99475.00;;;;5073462;28;20048;-70
2024/01/21 00:28:48;;;;;;;47.20;24.23;;;;;-5.80;99468.00;;;;5072315;28;20048;-68
2024/01/21 00:31:15;;;;;;;47.65;23.52;;;;;-5.80;99463.00;;;;5072370;28;20048;-69
2024/01/21 00:33:41;;;;;;;46.80;22.65;;;;;-5.90;99459.00;;;;5072090;28;20045;-69
2024/01/21 00:36:11;;;;;;;47.08;23.23;;;;;-5.90;99457.00;;;;5075293;28;20098;-69
2024/01/21 00:38:41;;;;;;;48.35;24.27;;;;;-6.00;99460.00;;;;5075297;28;20091;-70
2024/01/21 00:41:13;;;;;;;45.08;23.25;;;;;-6.00;99464.00;;;;5074425;28;20124;-69
2024/01/21 00:43:39;;;;;;;51.10;24.77;;;;;-6.00;99457.00;;;;5075244;28;20059;-69
2024/01/21 00:46:07;;;;;;;43.58;23.08;;;;;-5.90;99454.00;;;;5075911;28;20407;-69
2024/01/21 00:48:34;;;;;;;44.33;22.88;;;;;-6.00;99454.00;;;;5075857;28;20528;-69
2024/01/21 00:51:01;;;;;;;46.85;23.15;;;;;-6.00;99452.00;;;;5074559;28;20088;-70
2024/01/21 00:53:27;;;;;;;41.88;22.48;;;;;-6.10;99450.00;;;;5073683;28;20068;-70
2024/01/21 00:55:54;;;;;;;49.55;24.00;;;;;-5.90;99450.00;;;;5073152;28;20541;-71
2024/01/21 00:58:21;;;;;;;40.60;21.90;;;;;-5.70;99445.00;;;;5055648;28;20106;-71
2024/01/21 01:00:50;;;;;;;44.33;22.75;;;;;-5.60;99458.00;;;;5073370;28;20063;-71
2024/01/21 01:03:17;;;;;;;42.38;21.65;;;;;-5.40;99453.00;;;;5072066;28;20045;-71
2024/01/21 01:05:44;;;;;;;49.08;23.35;;;;;-5.40;99450.00;;;;5071012;28;20055;-71
2024/01/21 01:08:11;;;;;;;40.75;21.17;;;;;-5.40;99468.00;;;;5073027;28;20098;-71
2024/01/21 01:10:37;;;;;;;46.78;22.98;;;;;-5.40;99463.00;;;;5073035;28;20041;-69
2024/01/21 01:13:04;;;;;;;41.35;21.05;;;;;-5.50;99478.00;;;;5071805;28;20052;-69
2024/01/21 01:15:30;;;;;;;41.40;21.05;;;;;-5.60;99486.00;;;;5072346;28;20041;-69
2024/01/21 01:17:57;;;;;;;42.83;22.70;;;;;-5.70;99487.00;;;;5055077;28;20052;-69
2024/01/21 01:20:24;;;;;;;41.03;19.60;;;;;-5.60;99478.00;;;;5071184;28;20048;-69
2024/01/21 01:22:51;;;;;;;40.63;20.25;;;;;-5.50;99465.00;;;;5071532;28;20055;-69
2024/01/21 01:25:18;;;;;;;43.75;22.17;;;;;-5.50;99481.00;;;;5072006;28;20163;-68
2024/01/21 01:27:44;;;;;;;42.45;22.17;;;;;-5.40;99482.00;;;;5071276;28;20052;-68
2024/01/21 01:30:11;;;;;;;36.75;19.45;;;;;-5.40;99479.00;;;;5072796;28;20036;-70
2024/01/21 01:32:38;;;;;;;39.65;19.77;;;;;-5.30;99477.00;;;;5071588;28;20458;-69
2024/01/21 01:35:05;;;;;;;38.88;18.80;;;;;-5.30;99468.00;;;;5072140;28;20493;-69
2024/01/21 01:37:31;;;;;;;42.00;20.70;;;;;-5.30;99470.00;;;;5072724;28;20056;-71
2024/01/21 01:39:58;;;;;;;42.45;21.48;;;;;-5.30;99461.00;;;;5071720;28;20046;-69
2024/01/21 01:42:24;;;;;;;42.70;21.05;;;;;-5.20;99465.00;;;;5072568;28;20486;-69
2024/01/21 01:44:51;;;;;;;41.50;21.27;;;;;-5.30;99459.00;;;;5072085;28;20076;-69
2024/01/21 01:47:18;;;;;;;44.38;22.40;;;;;-5.50;99450.00;;;;5073145;28;20063;-69
2024/01/21 01:49:45;;;;;;;40.53;20.58;;;;;-5.80;99446.00;;;;5073589;28;20037;-69
2024/01/21 01:52:15;;;;;;;41.30;21.67;;;;;-6.00;99447.00;;;;5073772;28;20047;-69
2024/01/21 01:54:45;;;;;;;39.53;21.02;;;;;-6.10;99456.00;;;;5073833;28;20040;-70
2024/01/21 01:57:14;;;;;;;40.25;21.23;;;;;-6.10;99454.00;;;;5071876;28;20051;-69
2024/01/21 01:59:41;;;;;;;40.65;20.85;;;;;-6.10;99457.00;;;;5071513;28;20102;-69
2024/01/21 02:02:08;;;;;;;40.88;20.33;;;;;-6.00;99449.00;;;;5055020;28;20087;-69
2024/01/21 02:04:35;;;;;;;42.88;20.92;;;;;-5.90;99447.00;;;;5071503;28;20106;-69
2024/01/21 02:07:02;;;;;;;41.53;21.15;;;;;-6.10;99436.00;;;;5071589;28;20052;-69
2024/01/21 02:09:29;;;;;;;39.47;19.25;;;;;-6.30;99431.00;;;;5071290;28;20039;-69
2024/01/21 02:11:57;;;;;;;41.17;21.63;;;;;-6.30;99435.00;;;;5071131;28;20102;-69
2024/01/21 02:14:24;;;;;;;42.25;22.02;;;;;-6.20;99429.00;;;;5054991;28;20122;-69
2024/01/21 02:16:50;;;;;;;42.28;20.50;;;;;-6.30;99423.00;;;;5072514;28;20049;-69
2024/01/21 02:19:26;;;;;;;43.08;23.58;;;;;-6.40;99412.00;;;;5054903;28;20048;-69
2024/01/21 02:21:54;;;;;;;42.15;21.52;;;;;-6.50;99413.00;;;;5071149;28;20067;-69
2024/01/21 02:24:20;;;;;;;42.35;21.88;;;;;-6.50;99407.00;;;;5070290;28;20059;-69
2024/01/21 02:26:48;;;;;;;39.90;20.55;;;;;-6.60;99398.00;;;;5054726;28;20417;-69
2024/01/21 02:29:14;;;;;;;44.75;20.60;;;;;-6.60;99394.00;;;;5070598;28;20051;-69
2024/01/21 02:31:44;;;;;;;39.17;20.02;;;;;-6.70;99399.00;;;;5072420;28;20167;-69
2024/01/21 02:34:10;;;;;;;41.15;21.30;;;;;-6.70;99399.00;;;;5070387;28;20489;-69
2024/01/21 02:36:37;;;;;;;43.42;21.38;;;;;-6.70;99390.00;;;;5054070;28;20407;-69
2024/01/21 02:39:05;;;;;;;46.15;22.27;;;;;-6.50;99394.00;;;;5070527;28;20123;-69
2024/01/21 02:41:31;;;;;;;42.25;19.80;;;;;-6.40;99381.00;;;;5070488;28;20051;-69
2024/01/21 02:43:59;;;;;;;38.78;20.08;;;;;-6.20;99394.00;;;;5069573;28;20052;-69
2024/01/21 02:46:25;;;;;;;43.42;21.40;;;;;-6.20;99398.00;;;;5071634;28;20040;-69
2024/01/21 02:48:52;;;;;;;37.00;20.40;;;;;-6.20;99392.00;;;;5071673;28;20087;-69
2024/01/21 02:51:19;;;;;;;38.20;19.75;;;;;-6.20;99396.00;;;;5072992;28;20098;-69
2024/01/21 02:53:45;;;;;;;36.47;18.48;;;;;-6.30;99390.00;;;;5074739;28;20036;-68
2024/01/21 02:56:26;;;;;;;34.53;20.35;;;;;-6.50;99392.00;;;;5074075;28;20046;-69
2024/01/21 02:58:53;;;;;;;33.72;16.92;;;;;-6.50;99394.00;;;;5057764;28;20060;-69
2024/01/21 03:01:20;;;;;;;35.50;19.05;;;;;-6.50;99386.00;;;;5075331;28;20044;-69
2024/01/21 03:03:47;;;;;;;38.85;19.35;;;;;-6.60;99381.00;;;;5073240;28;20048;-69
2024/01/21 03:06:14;;;;;;;35.05;18.85;;;;;-6.60;99379.00;;;;5074055;28;20517;-69
2024/01/21 03:08:41;;;;;;;37.25;19.55;;;;;-6.60;99388.00;;;;5075035;28;20048;-69
2024/01/21 03:11:08;;;;;;;34.45;18.38;;;;;-6.60;99394.00;;;;5073613;28;20127;-69
2024/01/21 03:13:34;;;;;;;45.08;20.35;;;;;-6.60;99379.00;;;;5072941;28;20606;-69
2024/01/21 03:16:01;;;;;;;44.75;20.35;;;;;-6.60;99365.00;;;;5073745;28;20040;-69
2024/01/21 03:18:27;;;;;;;40.38;20.30;;;;;-6.80;99355.00;;;;5075295;28;20056;-69
2024/01/21 03:20:54;;;;;;;41.20;19.70;;;;;-6.90;99352.00;;;;5073758;28;20045;-69
2024/01/21 03:23:20;;;;;;;43.92;20.65;;;;;-7.00;99360.00;;;;5073474;28;20044;-69
2024/01/21 03:25:47;;;;;;;42.17;21.00;;;;;-6.90;99359.00;;;;5073286;28;20044;-69
2024/01/21 03:28:13;;;;;;;37.85;20.30;;;;;-6.60;99371.00;;;;5056797;28;20080;-69
2024/01/21 03:30:40;;;;;;;39.20;19.73;;;;;-6.40;99365.00;;;;5073463;28;20524;-69
2024/01/21 03:33:07;;;;;;;37.45;18.88;;;;;-6.40;99375.00;;;;5073365;28;20151;-69
2024/01/21 03:35:33;;;;;;;40.88;19.45;;;;;-6.40;99367.00;;;;5072663;28;20048;-69
2024/01/21 03:38:02;;;;;;;31.85;18.05;;;;;-6.40;99378.00;;;;5073381;28;20489;-69
2024/01/21 03:40:28;;;;;;;31.60;17.00;;;;;-6.50;99396.00;;;;5073512;28;20125;-69
2024/01/21 03:42:55;;;;;;;36.25;17.08;;;;;-6.70;99406.00;;;;5074331;28;20524;-69
2024/01/21 03:45:21;;;;;;;43.03;18.58;;;;;-6.80;99404.00;;;;5055996;28;20052;-69
2024/01/21 03:47:48;;;;;;;34.85;16.63;;;;;-6.80;99397.00;;;;5056754;28;20086;-69
2024/01/21 03:50:18;;;;;;;37.35;18.17;;;;;-6.90;99400.00;;;;5074145;28;20119;-69
2024/01/21 03:52:45;;;;;;;36.35;16.52;;;;;-6.90;99391.00;;;;5056651;28;20456;-69
2024/01/21 03:55:12;;;;;;;41.28;18.83;;;;;-6.90;99393.00;;;;5055974;28;20048;-69
2024/01/21 03:57:39;;;;;;;35.60;17.17;;;;;-6.90;99402.00;;;;5073980;28;20044;-69
2024/01/21 04:00:08;;;;;;;34.72;17.25;;;;;-6.80;99397.00;;;;5073205;28;20076;-69
2024/01/21 04:02:38;;;;;;;39.05;18.35;;;;;-6.90;99406.00;;;;5073790;28;20063;-69
2024/01/21 04:05:06;;;;;;;35.55;17.50;;;;;-6.90;99393.00;;;;5056019;28;20079;-69
2024/01/21 04:07:33;;;;;;;39.00;18.40;;;;;-6.80;99403.00;;;;5073352;28;20101;-69
2024/01/21 04:10:00;;;;;;;39.00;18.20;;;;;-6.70;99404.00;;;;5074565;28;20409;-69
2024/01/21 04:12:26;;;;;;;39.58;18.27;;;;;-6.70;99406.00;;;;5075116;28;20072;-68
2024/01/21 04:14:53;;;;;;;38.38;18.88;;;;;-6.70;99400.00;;;;5076717;28;20053;-69
2024/01/21 04:17:22;;;;;;;34.92;19.10;;;;;-6.70;99410.00;;;;5056654;28;20416;-68
2024/01/21 04:19:49;;;;;;;36.20;17.75;;;;;-6.70;99396.00;;;;5074439;28;20043;-69
2024/01/21 04:22:18;;;;;;;35.70;17.75;;;;;-6.70;99404.00;;;;5073464;28;20488;-69
2024/01/21 04:24:48;;;;;;;32.90;16.27;;;;;-6.70;99411.00;;;;5072258;28;20052;-69
2024/01/21 04:27:15;;;;;;;38.08;18.75;;;;;-6.70;99397.00;;;;5074149;28;20502;-71
2024/01/21 04:29:41;;;;;;;31.52;16.33;;;;;-6.60;99402.00;;;;5073624;28;20086;-70
2024/01/21 04:32:09;;;;;;;34.10;15.82;;;;;-6.50;99409.00;;;;5074476;28;20048;-71
2024/01/21 04:34:36;;;;;;;31.48;16.50;;;;;-6.40;99411.00;;;;5076700;28;20493;-70
2024/01/21 04:37:03;;;;;;;35.28;16.80;;;;;-6.40;99410.00;;;;5080437;28;20044;-70
2024/01/21 04:39:29;;;;;;;34.88;17.05;;;;;-6.50;99416.00;;;;5078866;28;20119;-70
2024/01/21 04:41:56;;;;;;;36.30;17.80;;;;;-6.50;99394.00;;;;5078787;28;20059;-71
2024/01/21 04:44:24;;;;;;;36.97;16.50;;;;;-6.50;99391.00;;;;5073754;28;20147;-70
2024/01/21 04:46:51;;;;;;;32.88;16.33;;;;;-6.70;99391.00;;;;5086836;28;20040;-71
2024/01/21 04:49:17;;;;;;;38.80;19.88;;;;;-6.90;99375.00;;;;5081290;28;20048;-71
2024/01/21 04:51:44;;;;;;;35.08;17.63;;;;;-7.10;99376.00;;;;5082005;28;20068;-71
2024/01/21 04:54:10;;;;;;;40.90;18.63;;;;;-7.30;99365.00;;;;5082561;28;20459;-71
2024/01/21 04:56:37;;;;;;;38.35;20.98;;;;;-7.40;99366.00;;;;5094283;28;20082;-70
2024/01/21 04:59:04;;;;;;;39.42;17.63;;;;;-7.50;99373.00;;;;5076987;28;20052;-71
2024/01/21 05:01:30;;;;;;;35.28;17.35;;;;;-7.50;99364.00;;;;5093645;28;20039;-71
2024/01/21 05:03:57;;;;;;;37.83;18.52;;;;;-7.50;99369.00;;;;5088715;28;20511;-70
2024/01/21 05:06:23;;;;;;;37.53;17.75;;;;;-7.50;99360.00;;;;5056709;28;20135;-70
2024/01/21 05:08:50;;;;;;;38.33;18.25;;;;;-7.30;99364.00;;;;5072714;28;20063;-71
2024/01/21 05:11:17;;;;;;;35.35;16.73;;;;;-7.30;99354.00;;;;5074122;28;20128;-70
2024/01/21 05:13:44;;;;;;;38.22;19.40;;;;;-7.40;99339.00;;;;5072208;28;20082;-70
2024/01/21 05:16:17;;;;;;;32.88;16.52;;;;;-7.50;99338.00;;;;5072484;28;20055;-70
2024/01/21 05:18:44;;;;;;;37.80;17.50;;;;;-7.60;99336.00;;;;5055872;28;20049;-70
2024/01/21 05:21:12;;;;;;;33.08;15.95;;;;;-7.60;99330.00;;;;5073647;28;20508;-71
2024/01/21 05:23:38;;;;;;;30.52;15.18;;;;;-7.60;99328.00;;;;5055206;28;20417;-70
2024/01/21 05:26:05;;;;;;;36.60;16.10;;;;;-7.50;99326.00;;;;5055800;28;20040;-71
2024/01/21 05:28:31;;;;;;;36.65;17.55;;;;;-7.50;99325.00;;;;5072233;28;20040;-71
2024/01/21 05:30:58;;;;;;;35.78;17.60;;;;;-7.30;99337.00;;;;5072542;28;20451;-70
2024/01/21 05:33:25;;;;;;;33.65;17.25;;;;;-7.20;99335.00;;;;5070678;28;20080;-71
2024/01/21 05:35:51;;;;;;;36.22;17.38;;;;;-7.20;99323.00;;;;5071228;28;20086;-71
2024/01/21 05:38:18;;;;;;;32.67;16.73;;;;;-7.10;99329.00;;;;5071545;28;20520;-71
2024/01/21 05:40:45;;;;;;;39.72;17.85;;;;;-7.10;99327.00;;;;5071012;28;20105;-71
2024/01/21 05:43:11;;;;;;;36.10;17.27;;;;;-7.10;99331.00;;;;5054699;28;20052;-71
2024/01/21 05:45:40;;;;;;;39.28;17.77;;;;;-7.10;99334.00;;;;5072083;28;20135;-71
2024/01/21 05:48:07;;;;;;;36.05;17.02;;;;;-7.10;99322.00;;;;5072395;28;20044;-71
2024/01/21 05:50:35;;;;;;;38.05;17.42;;;;;-7.10;99314.00;;;;5071293;28;20052;-71
2024/01/21 05:53:05;;;;;;;34.40;16.65;;;;;-7.20;99318.00;;;;5072656;28;20037;-71
2024/01/21 05:55:32;;;;;;;41.15;17.75;;;;;-7.10;99313.00;;;;5071949;28;20049;-71
2024/01/21 05:57:59;;;;;;;34.80;17.90;;;;;-7.10;99326.00;;;;5071437;28;20048;-71
2024/01/21 06:00:26;;;;;;;33.35;16.85;;;;;-7.00;99327.00;;;;5054514;28;20111;-71
2024/01/21 06:02:52;;;;;;;34.53;16.92;;;;;-6.80;99329.00;;;;5072659;28;20062;-72
2024/01/21 06:05:20;;;;;;;37.40;18.60;;;;;-6.60;99327.00;;;;5071555;28;20053;-72
2024/01/21 06:07:47;;;;;;;37.20;18.08;;;;;-6.40;99338.00;;;;5054438;28;20051;-72
2024/01/21 06:10:14;;;;;;;37.88;17.85;;;;;-6.40;99337.00;;;;5072416;28;20075;-71
2024/01/21 06:12:40;;;;;;;36.78;17.20;;;;;-6.30;99345.00;;;;5054259;28;20157;-72
2024/01/21 06:15:07;;;;;;;33.90;16.55;;;;;-6.30;99353.00;;;;5070518;28;20065;-72
2024/01/21 06:17:34;;;;;;;37.42;17.85;;;;;-6.30;99356.00;;;;5070980;28;20052;-72
2024/01/21 06:20:01;;;;;;;36.10;16.75;;;;;-6.20;99354.00;;;;5072340;28;20044;-71
2024/01/21 06:22:28;;;;;;;34.70;17.15;;;;;-6.30;99353.00;;;;5072181;28;20123;-70
2024/01/21 06:24:56;;;;;;;35.92;17.35;;;;;-6.30;99341.00;;;;5070457;28;20049;-71
2024/01/21 06:27:22;;;;;;;40.85;18.70;;;;;-6.30;99366.00;;;;5075605;28;20044;-72
2024/01/21 06:29:49;;;;;;;36.38;17.90;;;;;-6.30;99352.00;;;;5075261;28;20078;-72
2024/01/21 06:32:16;;;;;;;38.15;17.65;;;;;-6.40;99346.00;;;;5058374;28;20566;-72
2024/01/21 06:34:42;;;;;;;35.03;17.05;;;;;-6.60;99339.00;;;;5074362;28;20044;-72
2024/01/21 06:37:09;;;;;;;37.22;18.05;;;;;-6.70;99346.00;;;;5075921;28;20048;-71
2024/01/21 06:39:36;;;;;;;30.52;15.45;;;;;-6.70;99351.00;;;;5076233;28;20055;-72
2024/01/21 06:42:03;;;;;;;35.15;17.35;;;;;-6.70;99352.00;;;;5057892;28;20052;-72
2024/01/21 06:44:29;;;;;;;37.67;17.73;;;;;-6.70;99338.00;;;;5057853;28;20068;-72
2024/01/21 06:46:56;;;;;;;35.92;17.15;;;;;-6.60;99342.00;;;;5074434;28;20180;-72
2024/01/21 06:49:22;;;;;;;37.40;17.35;;;;;-6.60;99336.00;;;;5074417;28;20508;-72
2024/01/21 06:51:55;;;;;;;37.58;18.90;;;;;-6.60;99346.00;;;;5074566;28;20044;-72
2024/01/21 06:54:22;;;;;;;38.70;17.70;;;;;-6.70;99343.00;;;;5075420;28;20036;-72
2024/01/21 06:56:48;;;;;;;35.63;16.50;;;;;-6.60;99349.00;;;;5075813;28;20044;-72
2024/01/21 06:59:15;;;;;;;34.80;15.57;;;;;-6.60;99353.00;;;;5074001;28;20052;-71
2024/01/21 07:01:42;;;;;;;37.55;16.42;;;;;-6.60;99350.00;;;;5075350;28;20051;-72
2024/01/21 07:04:09;;;;;;;36.45;17.42;;;;;-6.50;99360.00;;;;5073540;28;20102;-71
2024/01/21 07:06:35;;;;;;;34.63;17.73;;;;;-6.40;99346.00;;;;5075643;28;20044;-71
2024/01/21 07:09:04;;;;;;;38.28;17.67;;;;;-6.50;99348.00;;;;5074408;28;20076;-72
2024/01/21 07:11:35;;;;;;;35.38;18.38;;;;;-6.40;99358.00;;;;5075418;28;20045;-71
2024/01/21 07:14:03;;;;;;;37.63;18.45;;;;;-6.40;99351.00;;;;5073766;28;20102;-72
2024/01/21 07:16:30;;;;;;;39.70;17.55;;;;;-6.40;99357.00;;;;5075208;28;20044;-71
2024/01/21 07:18:57;;;;;;;40.17;17.88;;;;;-6.40;99353.00;;;;5075073;28;20048;-71
2024/01/21 07:21:24;;;;;;;37.63;18.08;;;;;-6.50;99375.00;;;;5073779;28;20040;-72
2024/01/21 07:23:50;;;;;;;34.75;18.25;;;;;-6.50;99368.00;;;;5075004;28;20563;-71
2024/01/21 07:26:19;;;;;;;33.63;17.23;;;;;-6.30;99378.00;;;;5075276;28;20131;-72
2024/01/21 07:28:45;;;;;;;37.25;17.73;;;;;-6.40;99375.00;;;;5075394;28;21337;-72
2024/01/21 07:31:12;;;;;;;38.60;18.40;;;;;-6.40;99362.00;;;;5074754;28;20120;-72
2024/01/21 07:33:38;;;;;;;47.75;23.73;;;;;-6.30;99374.00;;;;5073405;28;20071;-71
2024/01/21 07:36:05;;;;;;;40.80;18.88;;;;;-6.20;99370.00;;;;5074584;28;20040;-72
2024/01/21 07:38:32;;;;;;;39.08;19.33;;;;;-6.10;99376.00;;;;5071861;28;20098;-72
2024/01/21 07:40:58;;;;;;;34.72;17.88;;;;;-6.10;99385.00;;;;5073171;28;20040;-72
2024/01/21 07:43:25;;;;;;;38.60;18.52;;;;;-6.00;99392.00;;;;5072541;28;20048;-72
2024/01/21 07:45:52;;;;;;;37.83;18.60;;;;;-6.10;99376.00;;;;5076643;28;20055;-71
2024/01/21 07:48:19;;;;;;;42.90;21.50;;;;;-6.00;99370.00;;;;5076008;28;20123;-69
2024/01/21 07:50:45;;;;;;;37.22;19.33;;;;;-6.10;99361.00;;;;5073176;28;20048;-70
2024/01/21 07:53:12;;;;;;;42.33;18.63;;;;;-6.10;99363.00;;;;5074392;28;20047;-69
2024/01/21 07:55:39;;;;;;;39.45;19.17;;;;;-5.90;99358.00;;;;5074560;28;20076;-69
2024/01/21 07:58:05;;;;;;;40.80;19.05;;;;;-5.70;99375.00;;;;5073515;28;20082;-69
2024/01/21 08:00:32;;;;;;;40.70;19.42;;;;;-5.70;99372.00;;;;5073294;28;20048;-71
2024/01/21 08:03:00;;;;;;;37.72;17.25;;;;;-5.80;99372.00;;;;5073488;28;20564;-69
2024/01/21 08:05:26;;;;;;;39.97;17.98;;;;;-5.60;99366.00;;;;5073506;28;20055;-65
2024/01/21 08:07:53;;;;;;;36.53;18.20;;;;;-5.50;99372.00;;;;5075508;28;20052;-66
2024/01/21 08:10:20;;;;;;;33.75;18.33;;;;;-5.40;99379.00;;;;5074726;28;20055;-64
2024/01/21 08:12:46;;;;;;;39.83;17.50;;;;;-5.10;99384.00;;;;5074637;28;20408;-66
2024/01/21 08:15:13;;;;;;;37.97;18.67;;;;;-5.00;99391.00;;;;5074496;28;20041;-65
2024/01/21 08:17:40;;;;;;;39.67;18.45;;;;;-4.70;99398.00;;;;5074665;28;20136;-65
2024/01/21 08:20:07;;;;;;;32.08;18.08;;;;;-4.60;99396.00;;;;5074049;28;20044;-65
2024/01/21 08:22:34;;;;;;;38.65;20.05;;;;;-4.50;99388.00;;;;5073994;28;20539;-65
2024/01/21 08:25:01;;;;;;;37.72;19.08;;;;;-4.40;99379.00;;;;5073547;28;20418;-65
2024/01/21 08:27:28;;;;;;;37.22;18.75;;;;;-4.40;99369.00;;;;5072658;28;20515;-66
2024/01/21 08:29:55;;;;;;;39.45;19.88;;;;;-4.60;99357.00;;;;5072913;28;20059;-66
2024/01/21 08:32:21;;;;;;;38.67;19.40;;;;;-4.70;99358.00;;;;5073635;28;20513;-66
2024/01/21 08:34:50;;;;;;;41.13;20.02;;;;;-4.70;99349.00;;;;5073238;28;20051;-66
2024/01/21 08:37:17;;;;;;;40.85;21.30;;;;;-4.80;99349.00;;;;5073961;28;20044;-66
2024/01/21 08:39:44;;;;;;;48.13;25.48;;;;;-4.80;99345.00;;;;5074358;28;20069;-65
2024/01/21 08:42:16;;;;;;;40.78;19.00;;;;;-4.60;99366.00;;;;5074262;28;20102;-66
2024/01/21 08:44:43;;;;;;;39.40;18.60;;;;;-4.50;99363.00;;;;5073180;28;20048;-67
2024/01/21 08:47:09;;;;;;;37.38;17.98;;;;;-4.30;99368.00;;;;5073141;28;20075;-67
2024/01/21 08:49:36;;;;;;;36.38;18.95;;;;;-4.10;99377.00;;;;5072950;28;20045;-66
2024/01/21 08:52:03;;;;;;;38.33;18.73;;;;;-4.00;99378.00;;;;5071966;28;20045;-67
2024/01/21 08:54:31;;;;;;;40.53;20.45;;;;;-3.90;99395.00;;;;5072521;28;20064;-67
2024/01/21 08:56:58;;;;;;;36.50;19.33;;;;;-3.70;99416.00;;;;5072659;28;20040;-66
2024/01/21 08:59:25;;;;;;;35.83;18.65;;;;;-3.50;99412.00;;;;5072277;28;20048;-65
2024/01/21 09:01:51;;;;;;;37.30;19.27;;;;;-3.40;99412.00;;;;5076193;28;20037;-64
2024/01/21 09:04:18;;;;;;;34.63;18.15;;;;;-3.30;99427.00;;;;5075483;28;20108;-65
2024/01/21 09:06:45;;;;;;;32.40;18.27;;;;;-3.20;99420.00;;;;5079825;28;20052;-65
2024/01/21 09:09:12;;;;;;;38.95;19.58;;;;;-3.00;99430.00;;;;5081402;28;20044;-66
2024/01/21 09:11:39;;;;;;;39.60;20.02;;;;;-2.90;99407.00;;;;5081430;28;20040;-66
2024/01/21 09:14:06;;;;;;;32.65;17.45;;;;;-2.70;99395.00;;;;5075262;28;20075;-65
2024/01/21 09:16:33;;;;;;;37.63;20.05;;;;;-2.40;99381.00;;;;5073308;28;20075;-65
2024/01/21 09:19:00;;;;;;;39.97;20.00;;;;;-2.50;99372.00;;;;5081130;28;20485;-65
2024/01/21 09:21:27;;;;;;;60.13;30.15;;;;;-2.60;99360.00;;;;5082103;28;20092;-65
2024/01/21 09:24:03;;;;;;;63.97;33.45;;;;;-2.70;99358.00;;;;5087890;28;20040;-65
2024/01/21 09:26:31;;;;;;;63.65;32.22;;;;;-2.50;99371.00;;;;5089275;28;20176;-65
2024/01/21 09:28:57;;;;;;;57.83;30.30;;;;;-2.30;99381.00;;;;5082471;28;20052;-65
2024/01/21 09:31:24;;;;;;;51.65;24.38;;;;;-2.10;99403.00;;;;5087847;28;20051;-65
2024/01/21 09:33:51;;;;;;;38.50;20.08;;;;;-1.90;99418.00;;;;5078350;28;20086;-66
2024/01/21 09:36:19;;;;;;;35.92;20.42;;;;;-1.70;99442.00;;;;5076853;28;20052;-66
2024/01/21 09:38:46;;;;;;;32.92;18.60;;;;;-1.60;99466.00;;;;5077261;28;21833;-65
2024/01/21 09:41:34;;;;;;;38.35;19.23;;;;;-1.60;99486.00;;;;5072852;28;20463;-65
2024/01/21 09:44:01;;;;;;;37.58;19.38;;;;;-1.60;99504.00;;;;5078515;28;20330;-65
2024/01/21 09:46:28;;;;;;;32.67;18.35;;;;;-1.50;99520.00;;;;5086829;28;20052;-65
2024/01/21 09:48:57;;;;;;;31.70;18.27;;;;;-1.30;99535.00;;;;5089175;28;20064;-65
2024/01/21 09:51:24;;;;;;;35.10;18.92;;;;;-1.20;99551.00;;;;5088126;28;20045;-65
2024/01/21 09:53:51;;;;;;;35.15;19.13;;;;;-1.10;99565.00;;;;5088027;28;20048;-65
2024/01/21 09:56:18;;;;;;;39.70;20.05;;;;;-1.10;99567.00;;;;5084664;28;20044;-65
2024/01/21 09:58:48;;;;;;;37.50;21.05;;;;;-1.10;99567.00;;;;5085976;28;20072;-65
2024/01/21 10:01:16;;;;;;;37.90;19.90;;;;;-1.00;99562.00;;;;5077951;28;20037;-65
2024/01/21 10:03:44;;;;;;;32.65;19.27;;;;;-0.80;99549.00;;;;5076520;28;20416;-66
2024/01/21 10:06:11;;;;;;;35.75;20.27;;;;;-0.60;99549.00;;;;5077633;28;20049;-65
2024/01/21 10:08:42;;;;;;;38.03;20.65;;;;;-0.40;99571.00;;;;5076158;28;20501;-65
2024/01/21 10:11:09;;;;;;;39.60;21.65;;;;;-0.30;99572.00;;;;5078524;28;20060;-66
2024/01/21 10:13:39;;;;;;;40.45;21.85;;;;;-0.30;99563.00;;;;5079429;28;20052;-66
2024/01/21 10:16:06;;;;;;;36.92;19.73;;;;;-0.10;99551.00;;;;5089227;28;20125;-65
2024/01/21 10:18:34;;;;;;;39.83;20.38;;;;;0.00;99544.00;;;;5085711;28;20059;-66
2024/01/21 10:21:05;;;;;;;39.53;21.88;;;;;0.10;99543.00;;;;5084021;28;20104;-66
2024/01/21 10:23:32;;;;;;;35.15;21.10;;;;;0.10;99537.00;;;;5081052;28;20055;-66
2024/01/21 10:25:59;;;;;;;40.72;22.48;;;;;0.20;99543.00;;;;5083234;28;20042;-66
2024/01/21 10:28:28;;;;;;;41.72;22.88;;;;;0.30;99552.00;;;;5079545;28;20147;-65
2024/01/21 10:30:54;;;;;;;36.17;19.35;;;;;0.40;99535.00;;;;5079847;28;20043;-65
2024/01/21 10:33:21;;;;;;;35.88;19.95;;;;;0.50;99518.00;;;;5077990;28;20043;-65
2024/01/21 10:35:48;;;;;;;32.03;18.02;;;;;0.50;99543.00;;;;5077782;28;20482;-65
2024/01/21 10:38:15;;;;;;;36.97;21.30;;;;;0.70;99550.00;;;;5079570;28;20048;-66
2024/01/21 10:40:46;;;;;;;34.40;18.23;;;;;1.00;99560.00;;;;5078288;28;20049;-65
2024/01/21 10:43:13;;;;;;;33.80;19.95;;;;;1.20;99537.00;;;;5071308;28;20114;-66
2024/01/21 10:45:46;;;;;;;35.83;20.30;;;;;1.30;99538.00;;;;5071686;28;20049;-65
2024/01/21 10:48:14;;;;;;;32.95;18.90;;;;;1.50;99522.00;;;;5072016;28;20045;-65
2024/01/21 10:50:42;;;;;;;36.47;22.90;;;;;1.80;99515.00;;;;5070866;28;20123;-66
2024/01/21 10:53:12;;;;;;;39.10;23.98;;;;;2.00;99496.00;;;;5070667;28;20410;-66
2024/01/21 10:55:40;;;;;;;36.10;21.40;;;;;2.40;99477.00;;;;5071087;28;20098;-66
2024/01/21 10:58:08;;;;;;;36.38;20.90;;;;;2.60;99481.00;;;;5071485;28;20210;-66
2024/01/21 11:00:37;;;;;;;33.60;19.27;;;;;2.70;99479.00;;;;5071766;28;20040;-65
2024/01/21 11:03:24;;;;;;;29.20;18.30;;;;;2.60;99474.00;;;;5070327;28;20051;-65
2024/01/21 11:05:58;;;;;;;29.95;19.08;;;;;2.60;99476.00;;;;5071228;28;20036;-66
2024/01/21 11:08:29;;;;;;;38.60;22.25;;;;;2.50;99487.00;;;;5071374;28;20058;-65
2024/01/21 11:11:14;;;;;;;41.92;24.75;;;;;2.60;99469.00;;;;5071663;28;20136;-65
2024/01/21 11:13:51;;;;;;;38.10;21.65;;;;;2.70;99460.00;;;;5072879;28;20049;-66
2024/01/21 11:16:30;;;;;;;33.95;18.17;;;;;3.00;99439.00;;;;5074856;28;20119;-65
2024/01/21 11:18:58;;;;;;;28.45;17.92;;;;;3.40;99459.00;;;;5073691;28;20128;-65
2024/01/21 11:21:27;;;;;;;28.17;18.52;;;;;3.50;99467.00;;;;5075159;28;20036;-67
2024/01/21 11:24:03;;;;;;;24.00;14.07;;;;;3.60;99480.00;;;;5073054;28;20045;-65
2024/01/21 11:26:36;;;;;;;28.92;15.65;;;;;3.70;99471.00;;;;5073473;28;20086;-66
2024/01/21 11:29:21;;;;;;;21.20;12.30;;;;;3.80;99468.00;;;;5073135;28;20420;-65
2024/01/21 11:31:52;;;;;;;19.98;10.93;;;;;3.80;99475.00;;;;5073350;28;20075;-66
2024/01/21 11:34:19;;;;;;;24.00;14.80;;;;;3.90;99477.00;;;;5073802;28;20132;-68
2024/01/21 11:36:46;;;;;;;27.48;16.45;;;;;4.10;99476.00;;;;5074349;28;20045;-65
2024/01/21 11:39:12;;;;;;;26.80;16.70;;;;;4.30;99478.00;;;;5073011;28;20044;-65
2024/01/21 11:41:43;;;;;;;27.13;15.82;;;;;4.40;99487.00;;;;5075016;28;20044;-66
2024/01/21 11:44:24;;;;;;;27.30;16.20;;;;;4.30;99500.00;;;;5073597;28;20067;-64
2024/01/21 11:46:58;;;;;;;26.48;14.85;;;;;4.10;99498.00;;;;5074261;28;20044;-66
2024/01/21 11:49:25;;;;;;;21.85;13.18;;;;;4.00;99477.00;;;;5072829;28;20048;-64
2024/01/21 11:51:52;;;;;;;21.10;12.10;;;;;4.00;99461.00;;;;5074120;28;20068;-64
2024/01/21 11:54:20;;;;;;;20.27;12.25;;;;;4.10;99458.00;;;;5073527;28;20048;-65
2024/01/21 11:56:47;;;;;;;18.85;11.23;;;;;4.30;99456.00;;;;5073869;28;20055;-69
2024/01/21 11:59:14;;;;;;;16.33;10.70;;;;;4.40;99463.00;;;;5073925;28;20076;-67
2024/01/21 12:01:41;;;;;;;15.07;8.82;;;;;4.50;99460.00;;;;5073668;28;20068;-68
2024/01/21 12:04:10;;;;;;;15.20;8.70;;;;;4.50;99467.00;;;;5072227;28;20048;-66